Time;durP1;ratioP1;P1;durP2;ratioP2;P2;SDS_P1;SDS_P2;PMS_P1;PMS_P2;Temp;Humidity;BMP_temperature;BMP_pressure;BME280_temperature;BME280_humidity;BME280_pressure;Samples;Min_cycle;Max_cycle;Signal;HPM_P1;HPM_P2
2022/11/10 07:45:45;;;;;;;1.75;1.08;;;;;;;10.41;76.49;97504.66;2098189;27;20581;-66
2022/11/10 07:46:47;;;;;;;4.35;1.40;;;;;;;10.44;76.23;97524.59;2092208;28;20232;-66
2022/11/10 07:47:49;;;;;;;5.70;1.30;;;;;;;10.85;76.35;97529.44;2089606;28;20196;-66
2022/11/10 07:48:54;;;;;;;4.60;1.40;;;;;;;11.52;74.64;97535.97;2088960;28;20227;-66
2022/11/10 07:49:55;;;;;;;5.80;1.63;;;;;;;11.55;73.19;97507.06;2082648;28;20231;-66
2022/11/10 07:50:56;;;;;;;4.43;1.30;;;;;;;12.93;70.56;97531.66;2082676;28;20283;-67
2022/11/10 07:51:58;;;;;;;4.18;1.65;;;;;;;13.36;69.65;97542.16;2078384;28;20248;-66
2022/11/10 07:53:06;;;;;;;2.80;1.50;;;;;;;14.23;67.71;97544.56;2074699;28;20232;-66
2022/11/10 07:54:08;;;;;;;3.40;1.48;;;;;;;14.78;66.31;97546.47;2074790;28;20293;-66
2022/11/10 07:55:09;;;;;;;4.57;1.40;;;;;;;15.36;64.13;97544.53;2074391;28;20277;-66
2022/11/10 07:56:11;;;;;;;4.90;1.58;;;;;;;16.45;61.11;97547.75;2072603;28;20230;-66
2022/11/10 07:57:12;;;;;;;4.25;1.75;;;;;;;16.78;58.86;97554.75;2079776;28;20449;-66
2022/11/10 07:58:16;;;;;;;6.82;2.45;;;;;;;15.40;60.86;97555.78;2081613;28;20204;-66
2022/11/10 07:59:17;;;;;;;4.40;2.13;;;;;;;14.99;63.55;97549.81;2074339;28;20232;-66
2022/11/10 08:00:19;;;;;;;5.20;2.55;;;;;;;15.29;60.27;97545.78;2073176;28;20292;-67
2022/11/10 08:01:20;;;;;;;4.63;2.88;;;;;;;16.56;58.58;97549.81;2073651;28;20289;-66
2022/11/10 08:02:21;;;;;;;6.53;3.15;;;;;;;16.70;56.49;97552.53;2073466;28;20222;-66
2022/11/10 08:03:23;;;;;;;4.85;2.10;;;;;;;16.04;56.85;97538.50;2073368;28;20264;-66
2022/11/10 08:04:25;;;;;;;7.97;2.10;;;;;;;15.70;58.38;97555.16;2074337;28;20285;-66
2022/11/10 08:05:26;;;;;;;8.90;2.38;;;;;;;15.51;59.16;97556.97;2076219;28;20308;-66
2022/11/10 08:06:28;;;;;;;3.50;1.83;;;;;;;16.68;56.76;97564.13;2066000;28;20230;-66
2022/11/10 08:07:35;;;;;;;4.10;1.90;;;;;;;17.52;55.53;97562.94;2072668;28;20827;-66
2022/11/10 08:08:36;;;;;;;5.22;1.80;;;;;;;17.61;54.34;97555.34;2072424;28;20243;-66
2022/11/10 08:09:38;;;;;;;3.20;1.58;;;;;;;18.06;53.15;97567.72;2070316;28;20225;-67
2022/11/10 08:10:40;;;;;;;6.35;2.50;;;;;;;18.17;52.95;97561.78;2075832;28;20228;-66
2022/11/10 08:11:41;;;;;;;3.67;1.55;;;;;;;18.18;53.74;97547.63;2073106;28;20197;-66
2022/11/10 08:12:43;;;;;;;4.25;1.90;;;;;;;18.40;53.05;97552.44;2070159;28;20293;-66
2022/11/10 08:13:44;;;;;;;3.97;1.55;;;;;;;18.87;52.08;97542.47;2073726;28;20233;-66
2022/11/10 08:14:45;;;;;;;4.18;2.05;;;;;;;19.17;50.55;97560.84;2072468;28;20280;-66
2022/11/10 08:15:47;;;;;;;5.75;2.38;;;;;;;19.08;50.92;97559.63;2075462;28;20248;-66
2022/11/10 08:16:49;;;;;;;4.47;2.28;;;;;;;19.06;50.98;97566.81;2074010;28;20256;-67
2022/11/10 08:17:50;;;;;;;9.25;2.78;;;;;;;19.06;50.90;97560.69;2072201;28;20267;-66
2022/11/10 08:18:52;;;;;;;8.52;2.45;;;;;;;19.07;51.27;97565.00;2072474;28;20228;-66
2022/11/10 08:19:53;;;;;;;4.45;2.50;;;;;;;19.12;50.08;97562.06;2077051;28;20209;-66
2022/11/10 08:20:55;;;;;;;6.88;1.90;;;;;;;18.39;52.26;97564.78;2077674;28;20938;-66
2022/11/10 08:21:56;;;;;;;4.63;2.30;;;;;;;18.58;53.07;97566.31;2077195;28;20810;-66
2022/11/10 08:23:04;;;;;;;5.93;2.30;;;;;;;18.90;52.07;97558.16;2080686;28;20232;-66
2022/11/10 08:24:06;;;;;;;6.57;1.90;;;;;;;19.23;51.26;97571.00;2074100;28;20289;-66
2022/11/10 08:25:11;;;;;;;8.30;2.10;;;;;;;19.81;49.78;97570.72;2073514;28;20313;-66
2022/11/10 08:26:15;;;;;;;5.60;2.28;;;;;;;19.86;49.81;97565.16;2076637;28;20608;-67
2022/11/10 08:27:16;;;;;;;7.20;2.25;;;;;;;19.87;49.27;97567.72;2072642;28;20264;-66
2022/11/10 08:28:18;;;;;;;4.60;2.13;;;;;;;20.29;48.52;97577.25;2070261;28;20202;-67
2022/11/10 08:29:20;;;;;;;7.88;2.38;;;;;;;20.42;48.48;97563.97;2073230;28;20290;-67
2022/11/10 08:30:21;;;;;;;7.22;2.40;;;;;;;20.54;48.09;97584.34;2065269;28;20700;-66
2022/11/10 08:31:23;;;;;;;7.18;2.38;;;;;;;19.86;48.65;97573.94;2072770;28;20247;-67
2022/11/10 08:32:24;;;;;;;4.65;2.03;;;;;;;20.43;48.55;97565.69;2072643;28;20484;-66
2022/11/10 08:33:26;;;;;;;13.00;2.28;;;;;;;20.05;48.82;97568.25;2073362;28;20560;-67
2022/11/10 08:34:27;;;;;;;4.75;2.10;;;;;;;20.75;47.77;97567.88;2073816;28;20204;-66
2022/11/10 08:35:30;;;;;;;5.15;2.20;;;;;;;20.90;47.67;97579.22;2072707;28;20230;-67
2022/11/10 08:36:31;;;;;;;7.70;1.83;;;;;;;20.75;47.17;97565.22;2072721;28;20605;-67
2022/11/10 08:37:33;;;;;;;5.80;1.80;;;;;;;21.41;46.48;97575.50;2072616;28;20232;-67
2022/11/10 08:38:34;;;;;;;6.15;1.98;;;;;;;21.44;45.53;97589.41;2074768;28;20280;-67
2022/11/10 08:39:36;;;;;;;4.20;1.55;;;;;;;21.86;45.81;97575.72;2080535;28;20219;-67
2022/11/10 08:40:40;;;;;;;8.90;2.65;;;;;;;21.94;44.77;97572.47;2079208;28;20267;-67
2022/11/10 08:41:42;;;;;;;6.75;2.45;;;;;;;21.53;45.70;97579.91;2074838;28;20317;-67
2022/11/10 08:42:43;;;;;;;5.60;1.33;;;;;;;21.05;45.81;97580.75;2070171;28;20206;-67
2022/11/10 08:43:44;;;;;;;5.80;1.83;;;;;;;21.14;45.83;97593.38;2070529;28;20280;-67
2022/11/10 08:44:46;;;;;;;5.95;1.45;;;;;;;20.97;46.54;97596.41;2071336;28;20240;-67
2022/11/10 08:45:47;;;;;;;9.57;1.85;;;;;;;20.80;46.74;97571.09;2071467;28;20293;-67
2022/11/10 08:46:49;;;;;;;3.67;1.33;;;;;;;19.88;49.26;97580.00;2072659;28;20305;-67
2022/11/10 08:48:02;;;;;;;7.35;1.85;;;;;;;20.53;48.01;97596.78;2071825;28;20205;-67
2022/11/10 08:49:04;;;;;;;4.50;1.63;;;;;;;21.69;46.43;97585.81;2073437;28;20292;-67
2022/11/10 08:50:06;;;;;;;5.85;1.30;;;;;;;21.74;45.31;97595.22;2075368;28;20189;-67
2022/11/10 08:51:08;;;;;;;4.47;1.60;;;;;;;21.90;45.33;97598.44;2072306;28;20212;-67
2022/11/10 08:52:10;;;;;;;5.78;2.00;;;;;;;22.25;44.89;97592.22;2072912;28;20593;-67
2022/11/10 08:53:13;;;;;;;4.53;1.42;;;;;;;21.62;46.35;97595.22;2070101;28;20221;-67
2022/11/10 08:54:15;;;;;;;5.95;2.70;;;;;;;21.61;46.75;97604.16;2071351;28;20751;-67
2022/11/10 08:55:18;;;;;;;4.47;2.58;;;;;;;21.57;46.00;97602.66;2072502;28;20712;-67
2022/11/10 08:56:20;;;;;;;6.55;2.17;;;;;;;21.53;46.11;97606.47;2069525;28;20197;-67
2022/11/10 08:57:21;;;;;;;8.68;2.67;;;;;;;21.29;46.33;97601.16;2064882;28;20345;-67
2022/11/10 08:58:23;;;;;;;5.25;2.35;;;;;;;20.33;48.54;97595.50;2067724;28;20289;-66
2022/11/10 08:59:25;;;;;;;4.57;1.75;;;;;;;20.62;48.29;97597.94;2068211;28;20198;-66
2022/11/10 09:00:27;;;;;;;3.53;1.20;;;;;;;20.99;46.92;97616.56;2068518;28;20233;-66
2022/11/10 09:01:29;;;;;;;5.22;1.70;;;;;;;20.81;47.57;97613.44;2067547;28;20201;-66
2022/11/10 09:02:30;;;;;;;4.07;1.65;;;;;;;20.55;47.54;97613.41;2067797;28;20194;-67
2022/11/10 09:03:32;;;;;;;5.18;1.50;;;;;;;20.41;47.56;97610.88;2068399;28;20281;-67
2022/11/10 09:04:33;;;;;;;7.53;1.75;;;;;;;20.48;47.93;97620.13;2070579;28;20194;-66
2022/11/10 09:05:35;;;;;;;10.63;1.60;;;;;;;19.78;48.79;97609.84;2068676;28;20202;-67
2022/11/10 09:06:37;;;;;;;6.93;1.33;;;;;;;20.27;48.11;97611.84;2066262;28;20209;-66
2022/11/10 09:07:46;;;;;;;17.08;1.70;;;;;;;20.56;47.73;97617.75;2067851;28;20281;-66
2022/11/10 09:08:48;;;;;;;6.60;1.75;;;;;;;19.70;49.10;97616.50;2067522;28;20252;-66
2022/11/10 09:09:49;;;;;;;5.90;1.70;;;;;;;19.90;48.24;97625.78;2068758;28;20202;-67
2022/11/10 09:11:07;;;;;;;4.03;1.52;;;;;;;19.83;48.24;97618.34;2067087;28;20205;-66
2022/11/10 09:12:08;;;;;;;5.25;1.48;;;;;;;19.39;48.82;97602.63;2066062;28;20254;-66
2022/11/10 09:13:11;;;;;;;3.63;1.30;;;;;;;19.75;49.39;97621.50;2068072;28;20260;-66
2022/11/10 09:14:13;;;;;;;5.40;1.50;;;;;;;19.60;49.33;97612.75;2069351;28;20238;-66
2022/11/10 09:15:15;;;;;;;5.38;1.25;;;;;;;20.05;48.18;97615.97;2068445;28;20229;-67
2022/11/10 09:16:16;;;;;;;6.95;1.30;;;;;;;20.06;47.81;97600.88;2064383;28;20237;-66
2022/11/10 09:17:17;;;;;;;3.50;1.48;;;;;;;19.11;49.41;97615.94;2065757;28;20264;-67
2022/11/10 09:18:19;;;;;;;2.75;1.10;;;;;;;19.09;51.03;97622.19;2066054;28;20656;-66
2022/11/10 09:19:20;;;;;;;6.07;1.60;;;;;;;19.82;49.83;97622.81;2066940;28;20286;-66
2022/11/10 09:20:21;;;;;;;2.90;1.10;;;;;;;19.32;49.62;97613.72;2068132;28;20194;-66
2022/11/10 09:21:23;;;;;;;3.97;1.48;;;;;;;20.03;48.88;97623.16;2066258;28;20253;-67
2022/11/10 09:22:24;;;;;;;6.80;1.73;;;;;;;19.62;49.25;97616.16;2066589;28;20226;-66
2022/11/10 09:23:27;;;;;;;4.80;1.65;;;;;;;20.67;48.02;97625.00;2068424;28;20248;-66
2022/11/10 09:24:28;;;;;;;2.80;1.60;;;;;;;20.21;48.73;97623.72;2066326;28;20285;-67
2022/11/10 09:25:32;;;;;;;4.75;1.48;;;;;;;20.67;48.37;97635.59;2064455;28;20225;-66
2022/11/10 09:26:33;;;;;;;7.05;1.27;;;;;;;20.19;47.68;97622.97;2065050;28;20297;-66
2022/11/10 09:27:38;;;;;;;7.22;1.35;;;;;;;19.73;49.56;97631.31;2065497;28;20290;-66
2022/11/10 09:28:39;;;;;;;6.82;1.48;;;;;;;20.48;48.74;97637.81;2067648;28;20665;-66
2022/11/10 09:29:40;;;;;;;7.70;1.35;;;;;;;20.16;48.02;97635.59;2066637;28;20230;-66
2022/11/10 09:30:45;;;;;;;8.68;1.20;;;;;;;20.32;48.04;97640.69;2066424;28;20222;-66
2022/11/10 09:31:47;;;;;;;5.63;1.30;;;;;;;20.02;48.76;97624.13;2065222;28;20305;-66
2022/11/10 09:32:56;;;;;;;6.85;1.88;;;;;;;20.00;48.66;97643.75;2067590;28;20236;-66
2022/11/10 09:33:58;;;;;;;4.90;1.65;;;;;;;19.73;49.37;97641.94;2067218;28;20225;-66
2022/11/10 09:35:00;;;;;;;5.50;1.40;;;;;;;19.39;49.53;97641.50;2068743;28;20202;-66
2022/11/10 09:36:01;;;;;;;4.65;1.58;;;;;;;19.72;48.76;97649.03;2067823;28;20228;-66
2022/11/10 09:37:03;;;;;;;4.82;1.45;;;;;;;20.29;47.90;97639.13;2065781;28;20260;-66
2022/11/10 09:38:05;;;;;;;5.20;1.60;;;;;;;20.37;48.04;97635.94;2067641;28;20297;-66
2022/11/10 09:39:06;;;;;;;8.98;1.40;;;;;;;20.21;48.23;97644.06;2064328;28;20238;-65
2022/11/10 09:40:19;;;;;;;5.03;1.50;;;;;;;18.84;50.60;97648.47;2066353;28;20671;-66
2022/11/10 09:41:23;;;;;;;4.35;1.45;;;;;;;19.47;49.11;97657.75;2076139;28;20232;-66
2022/11/10 09:42:40;;;;;;;4.55;1.40;;;;;;;19.59;49.66;97653.44;2075630;28;20257;-65
2022/11/10 09:43:46;;;;;;;11.30;1.80;;;;;;;19.48;48.34;97655.97;2064308;28;20666;-66
2022/11/10 09:44:58;;;;;;;5.00;1.13;;;;;;;20.00;47.32;97663.13;2068534;28;20233;-66
2022/11/10 09:46:04;;;;;;;6.28;1.67;;;;;;;20.45;46.16;97661.91;2069820;28;20855;-66
2022/11/10 09:47:24;;;;;;;6.13;1.60;;;;;;;20.73;45.69;97674.16;2067254;28;20340;-66
2022/11/10 09:48:54;;;;;;;11.95;1.50;;;;;;;20.59;46.52;97677.72;2069589;28;20248;-66
2022/11/10 09:49:59;;;;;;;6.55;1.50;;;;;;;20.31;47.65;97676.13;2067552;28;20205;-66
2022/11/10 09:51:05;;;;;;;3.65;1.00;;;;;;;20.41;46.74;97665.75;2068234;28;20829;-65
2022/11/10 09:52:11;;;;;;;5.00;1.50;;;;;;;21.37;45.93;97676.69;2065597;28;20596;-66
2022/11/10 09:53:20;;;;;;;5.15;1.30;;;;;;;20.23;47.87;97677.50;2065834;28;20699;-66
2022/11/10 09:54:46;;;;;;;3.28;1.10;;;;;;;21.21;45.58;97682.25;2066655;28;20229;-66
2022/11/10 09:55:51;;;;;;;8.15;1.50;;;;;;;20.71;46.05;97673.41;2066687;28;20285;-65
2022/11/10 09:56:59;;;;;;;8.32;1.25;;;;;;;21.46;45.23;97672.50;2067142;28;20240;-65
2022/11/10 09:58:01;;;;;;;4.85;1.30;;;;;;;21.00;45.77;97679.34;2068127;28;20276;-66
2022/11/10 09:59:18;;;;;;;8.63;1.20;;;;;;;20.80;46.19;97678.06;2059839;28;20210;-66
2022/11/10 10:00:19;;;;;;;10.68;1.23;;;;;;;20.84;45.93;97676.91;2069359;28;20256;-66
2022/11/10 10:01:27;;;;;;;5.75;1.20;;;;;;;21.44;46.14;97673.59;2075570;28;20200;-66
2022/11/10 10:02:46;;;;;;;7.00;2.58;;;;;;;22.01;44.94;97680.06;2081861;28;20224;-66
2022/11/10 10:04:12;;;;;;;4.57;1.15;;;;;;;22.50;43.42;97665.69;2077437;28;20707;-66
2022/11/10 10:05:28;;;;;;;5.78;1.38;;;;;;;21.39;45.84;97687.19;2072874;28;20627;-67
2022/11/10 10:06:33;;;;;;;3.97;1.10;;;;;;;22.77;43.81;97679.66;2078784;28;20266;-66
2022/11/10 10:08:04;;;;;;;8.23;1.77;;;;;;;22.06;43.44;97669.09;2073073;28;20255;-66
2022/11/10 10:09:06;;;;;;;8.05;1.10;;;;;;;22.00;42.91;97681.00;2075364;28;20229;-66
2022/11/10 10:10:24;;;;;;;6.32;1.83;;;;;;;22.39;43.42;97676.31;2077701;28;20257;-65
2022/11/10 10:11:35;;;;;;;5.63;1.35;;;;;;;22.97;42.46;97680.75;2077185;28;20679;-66
2022/11/10 10:13:09;;;;;;;4.57;1.20;;;;;;;22.86;41.79;97686.06;2065415;28;20246;-66
2022/11/10 10:14:29;;;;;;;6.22;1.50;;;;;;;23.51;41.11;97678.28;2067417;28;20285;-66
2022/11/10 10:15:41;;;;;;;2.85;0.98;;;;;;;23.26;40.69;97678.47;2067125;28;20344;-66
2022/11/10 10:16:48;;;;;;;6.75;1.05;;;;;;;23.34;40.71;97676.97;2068425;28;20232;-66
2022/11/10 10:18:01;;;;;;;3.15;1.33;;;;;;;22.17;43.13;97679.75;2076737;28;20300;-65
2022/11/10 10:19:45;;;;;;;7.55;1.67;;;;;;;22.04;43.19;97682.47;2075996;28;20280;-65
2022/11/10 10:20:56;;;;;;;9.95;1.40;;;;;;;21.31;44.87;97685.09;2075398;28;20224;-66
2022/11/10 10:22:19;;;;;;;8.45;1.30;;;;;;;22.45;42.48;97686.50;2075134;28;20320;-66
2022/11/10 10:23:34;;;;;;;5.15;1.42;;;;;;;21.24;44.69;97681.16;2076096;28;20878;-66
2022/11/10 10:25:00;;;;;;;5.10;1.13;;;;;;;21.42;44.44;97684.34;2076039;28;20236;-64
2022/11/10 10:26:02;;;;;;;5.43;1.20;;;;;;;22.10;43.04;97681.19;2076377;28;20204;-66
2022/11/10 10:27:09;;;;;;;6.40;1.05;;;;;;;22.15;43.55;97687.00;2072923;28;20237;-64
2022/11/10 10:28:38;;;;;;;6.25;1.48;;;;;;;22.50;41.84;97679.00;2076106;28;20279;-62
2022/11/10 10:29:45;;;;;;;5.65;1.40;;;;;;;22.05;42.33;97683.34;2071810;28;20863;-62
2022/11/10 10:30:47;;;;;;;4.95;1.10;;;;;;;20.48;44.63;97685.56;2074781;28;20212;-62
2022/11/10 10:31:50;;;;;;;4.75;1.20;;;;;;;21.53;44.46;97670.25;2072393;28;20723;-64
2022/11/10 10:32:59;;;;;;;6.53;1.15;;;;;;;22.18;46.28;97692.06;2076741;28;20198;-63
2022/11/10 10:34:01;;;;;;;7.60;2.40;;;;;;;23.25;41.07;97666.09;2075639;28;20244;-63
2022/11/10 10:35:03;;;;;;;4.90;1.60;;;;;;;22.64;41.47;97687.75;2075442;28;20209;-63
2022/11/10 10:36:13;;;;;;;8.38;1.63;;;;;;;22.80;41.76;97674.06;2071951;28;20193;-63
2022/11/10 10:37:30;;;;;;;5.75;1.75;;;;;;;22.95;41.71;97691.50;2074434;28;20264;-62
2022/11/10 10:38:38;;;;;;;8.90;1.33;;;;;;;23.65;41.12;97686.00;2076249;28;20200;-63
2022/11/10 10:39:45;;;;;;;4.55;1.45;;;;;;;24.09;40.29;97673.50;2074209;28;20868;-62
2022/11/10 10:40:49;;;;;;;3.15;1.27;;;;;;;23.60;40.24;97654.41;2075990;28;20692;-62
2022/11/10 10:41:51;;;;;;;8.52;1.33;;;;;;;22.80;41.30;97666.97;2075226;28;20244;-62
2022/11/10 10:42:53;;;;;;;7.40;1.20;;;;;;;22.98;42.15;97662.00;2076293;28;20588;-65
2022/11/10 10:43:57;;;;;;;6.78;1.70;;;;;;;24.04;39.75;97677.53;2072065;28;20235;-62
2022/11/10 10:45:15;;;;;;;9.20;1.20;;;;;;;22.73;42.20;97678.19;2073202;28;20786;-62
2022/11/10 10:46:19;;;;;;;5.50;1.38;;;;;;;22.12;43.31;97674.78;2074504;28;20261;-62
2022/11/10 10:47:35;;;;;;;9.68;1.33;;;;;;;22.59;41.86;97671.25;2074683;28;20776;-62
2022/11/10 10:48:37;;;;;;;4.63;1.10;;;;;;;22.74;41.21;97663.91;2075931;28;20200;-63
2022/11/10 10:49:38;;;;;;;5.40;1.25;;;;;;;23.17;41.33;97668.53;2075295;28;20491;-63
2022/11/10 10:50:42;;;;;;;6.10;1.27;;;;;;;22.20;41.97;97681.34;2075811;28;20244;-62
2022/11/10 10:51:44;;;;;;;8.48;1.90;;;;;;;22.02;42.44;97661.31;2071285;28;20289;-63
2022/11/10 10:53:06;;;;;;;6.75;1.30;;;;;;;22.77;41.91;97653.88;2072427;28;20233;-63
2022/11/10 10:54:35;;;;;;;3.50;1.15;;;;;;;23.69;41.13;97675.94;2074283;28;20287;-63
2022/11/10 10:55:37;;;;;;;5.35;1.50;;;;;;;22.96;41.12;97666.56;2073487;28;20863;-62
2022/11/10 10:56:41;;;;;;;7.15;1.15;;;;;;;21.94;43.24;97674.34;2074532;28;20282;-63
2022/11/10 10:57:50;;;;;;;10.38;1.00;;;;;;;21.93;43.30;97666.47;2076156;28;20228;-63
2022/11/10 10:58:59;;;;;;;3.10;1.10;;;;;;;23.39;41.17;97669.44;2075751;28;20225;-63
2022/11/10 11:00:20;;;;;;;6.45;1.75;;;;;;;23.21;41.05;97670.00;2075640;28;20356;-62
2022/11/10 11:01:29;;;;;;;5.18;1.25;;;;;;;23.10;41.09;97667.31;2075517;28;20196;-63
2022/11/10 11:02:31;;;;;;;6.85;3.05;;;;;;;23.45;40.07;97663.63;2073446;28;20305;-63
2022/11/10 11:03:44;;;;;;;8.57;3.10;;;;;;;23.33;40.30;97669.97;2074810;28;20235;-63
2022/11/10 11:04:45;;;;;;;8.05;3.40;;;;;;;22.46;41.48;97663.38;2066124;28;20222;-63
2022/11/10 11:06:06;;;;;;;2.70;1.42;;;;;;;23.10;40.99;97672.63;2067006;28;20290;-63
2022/11/10 11:07:23;;;;;;;3.53;1.10;;;;;;;23.03;40.68;97658.09;2067523;28;20233;-64
2022/11/10 11:08:25;;;;;;;4.30;1.00;;;;;;;22.94;41.00;97680.97;2067625;28;20304;-64
2022/11/10 11:09:37;;;;;;;4.30;1.40;;;;;;;22.15;41.86;97681.69;2063618;28;20233;-63
2022/11/10 11:10:44;;;;;;;5.75;1.20;;;;;;;22.42;41.96;97692.03;2067720;28;20277;-64
2022/11/10 11:12:06;;;;;;;6.82;1.30;;;;;;;22.46;42.45;97692.66;2067346;28;20194;-64
2022/11/10 11:13:20;;;;;;;5.22;1.38;;;;;;;22.26;42.26;97686.16;2065754;28;20221;-64
2022/11/10 11:14:25;;;;;;;3.55;1.08;;;;;;;22.37;42.51;97690.72;2066055;28;20774;-65
2022/11/10 11:15:29;;;;;;;4.15;1.20;;;;;;;19.66;46.55;97683.88;2067393;28;20248;-65
2022/11/10 11:16:55;;;;;;;5.72;1.27;;;;;;;21.38;44.92;97664.25;2072279;28;20201;-64
2022/11/10 11:17:59;;;;;;;4.50;1.30;;;;;;;21.41;44.22;97674.66;2071419;28;20206;-64
2022/11/10 11:19:04;;;;;;;6.20;1.35;;;;;;;20.62;44.56;97668.69;2066117;28;20289;-64
2022/11/10 11:20:13;;;;;;;3.33;1.45;;;;;;;21.41;44.63;97676.44;2070037;28;20234;-64
2022/11/10 11:21:36;;;;;;;3.92;0.98;;;;;;;22.34;43.76;97670.47;2071107;28;20205;-64
2022/11/10 11:22:48;;;;;;;5.88;1.35;;;;;;;22.97;41.48;97675.44;2075313;28;20244;-65
2022/11/10 11:24:10;;;;;;;4.38;1.25;;;;;;;23.83;41.30;97667.63;2075308;28;20635;-64
2022/11/10 11:25:32;;;;;;;5.45;1.27;;;;;;;20.81;44.30;97676.25;2075919;28;20239;-64
2022/11/10 11:26:50;;;;;;;4.47;1.05;;;;;;;20.24;45.71;97678.34;2075420;28;20243;-64
2022/11/10 11:28:10;;;;;;;10.63;1.60;;;;;;;19.79;48.17;97678.63;2074401;28;20684;-64
2022/11/10 11:29:54;;;;;;;1.98;0.90;;;;;;;20.33;46.13;97675.06;2071608;28;20716;-64
2022/11/10 11:31:05;;;;;;;6.75;1.25;;;;;;;21.15;45.23;97679.19;2070272;28;20208;-64
2022/11/10 11:32:32;;;;;;;9.02;1.80;;;;;;;21.47;44.35;97682.19;2074839;28;20225;-64
2022/11/10 11:33:41;;;;;;;11.25;1.30;;;;;;;19.41;48.51;97669.59;2074167;28;20612;-64
2022/11/10 11:35:05;;;;;;;4.60;1.10;;;;;;;19.53;48.36;97657.34;2074293;28;20284;-64
2022/11/10 11:36:16;;;;;;;6.38;1.40;;;;;;;20.29;46.24;97673.59;2077070;28;20248;-64
2022/11/10 11:37:45;;;;;;;5.65;1.00;;;;;;;20.79;44.85;97660.44;2075401;28;20243;-64
2022/11/10 11:38:57;;;;;;;14.55;2.03;;;;;;;21.23;43.64;97644.97;2075038;28;20289;-65
2022/11/10 11:40:22;;;;;;;10.05;1.23;;;;;;;22.50;42.52;97673.69;2074834;28;20200;-65
2022/11/10 11:41:30;;;;;;;7.82;1.70;;;;;;;21.77;45.88;97678.25;2073249;28;20232;-65
2022/11/10 11:42:40;;;;;;;3.58;1.20;;;;;;;20.49;46.39;97676.66;2071409;28;20304;-64
2022/11/10 11:43:54;;;;;;;3.80;1.17;;;;;;;20.79;46.12;97671.06;2073228;28;20205;-64
2022/11/10 11:45:17;;;;;;;6.60;1.25;;;;;;;20.22;46.68;97669.66;2074257;28;20679;-65
2022/11/10 11:46:37;;;;;;;3.58;1.17;;;;;;;20.14;46.86;97677.28;2074510;28;20189;-64
2022/11/10 11:47:51;;;;;;;7.00;1.15;;;;;;;20.67;46.26;97679.84;2083643;28;20287;-64
2022/11/10 11:49:24;;;;;;;5.13;1.05;;;;;;;19.70;48.55;97679.22;2081348;28;20228;-65
2022/11/10 11:50:31;;;;;;;5.50;1.00;;;;;;;16.28;54.40;97676.00;2075434;28;20368;-66
2022/11/10 11:51:48;;;;;;;4.95;1.10;;;;;;;17.88;51.32;97680.63;2075448;28;20225;-64
2022/11/10 11:53:11;;;;;;;7.30;1.40;;;;;;;18.44;49.98;97678.22;2074791;28;20231;-65
2022/11/10 11:54:44;;;;;;;2.80;1.13;;;;;;;17.29;53.23;97679.50;2075379;28;20193;-65
2022/11/10 11:56:16;;;;;;;6.07;1.05;;;;;;;17.32;54.49;97678.47;2073879;28;20276;-65
2022/11/10 11:57:57;;;;;;;8.43;1.30;;;;;;;18.23;51.39;97675.94;2074942;28;20296;-65
2022/11/10 11:59:08;;;;;;;4.88;1.42;;;;;;;19.55;47.19;97660.75;2075193;28;20232;-65
2022/11/10 12:00:16;;;;;;;4.75;1.35;;;;;;;19.86;47.22;97679.97;2075244;28;20905;-65
2022/11/10 12:01:54;;;;;;;2.75;1.17;;;;;;;20.97;46.40;97678.69;2075065;28;20243;-65
2022/11/10 12:03:29;;;;;;;7.10;1.42;;;;;;;20.60;48.10;97678.59;2071325;28;20205;-65
2022/11/10 12:04:48;;;;;;;5.35;1.50;;;;;;;19.20;50.30;97671.81;2073033;28;20605;-65
2022/11/10 12:06:28;;;;;;;7.78;1.35;;;;;;;19.21;49.40;97675.28;2073452;28;20233;-65
2022/11/10 12:07:58;;;;;;;4.30;1.23;;;;;;;19.52;48.40;97621.22;2075716;28;20272;-66
2022/11/10 12:09:10;;;;;;;7.82;1.25;;;;;;;19.91;48.28;97671.72;2075444;28;20204;-65
2022/11/10 12:10:33;;;;;;;9.20;1.50;;;;;;;18.37;50.44;97666.31;2075247;28;20659;-65
2022/11/10 12:12:08;;;;;;;3.85;1.00;;;;;;;20.56;47.39;97667.34;2074381;28;20703;-65
2022/11/10 12:13:36;;;;;;;5.22;1.17;;;;;;;20.52;46.33;97679.13;2073925;28;20233;-65
2022/11/10 12:14:55;;;;;;;5.95;1.27;;;;;;;20.18;46.53;97671.66;2074952;28;20197;-64
2022/11/10 12:15:57;;;;;;;3.05;1.20;;;;;;;20.80;45.76;97677.25;2076848;28;20197;-65
2022/11/10 12:17:32;;;;;;;3.28;1.42;;;;;;;20.73;44.47;97678.63;2074291;28;20241;-64
2022/11/10 12:18:49;;;;;;;9.15;2.00;;;;;;;21.39;44.00;97670.41;2075480;28;20212;-64
2022/11/10 12:20:08;;;;;;;8.85;1.60;;;;;;;20.05;46.37;97668.16;2075324;28;20602;-65
2022/11/10 12:21:22;;;;;;;6.68;1.30;;;;;;;20.69;44.61;97673.47;2073777;28;20293;-64
2022/11/10 12:22:32;;;;;;;3.03;0.88;;;;;;;21.59;43.25;97671.66;2074317;28;20316;-65
2022/11/10 12:23:34;;;;;;;5.97;1.23;;;;;;;21.84;43.67;97676.84;2075110;28;20236;-65
2022/11/10 12:25:06;;;;;;;4.00;1.20;;;;;;;21.53;43.67;97676.44;2074842;28;20241;-64
2022/11/10 12:26:51;;;;;;;5.90;1.30;;;;;;;21.02;44.00;97665.94;2073588;28;20205;-65
2022/11/10 12:28:08;;;;;;;10.85;1.13;;;;;;;21.56;43.39;97654.13;2044876;28;20295;-65
2022/11/10 12:29:47;;;;;;;3.90;0.80;;;;;;;21.60;43.51;97670.66;2035103;29;20227;-64
2022/11/10 12:30:54;;;;;;;6.93;0.80;;;;;;;21.42;43.86;97668.41;2041487;29;20196;-64
2022/11/10 12:32:20;;;;;;;4.15;1.10;;;;;;;20.58;45.73;97668.06;2046175;28;20328;-64
2022/11/10 12:33:43;;;;;;;4.50;1.45;;;;;;;20.53;45.79;97664.88;2047665;29;20202;-65
2022/11/10 12:35:04;;;;;;;6.38;1.13;;;;;;;20.66;45.79;97665.75;2047444;29;20247;-64
2022/11/10 12:36:11;;;;;;;12.40;6.63;;;;;;;20.01;46.04;97667.50;2047391;29;20731;-65
2022/11/10 12:37:27;;;;;;;6.82;4.13;;;;;;;20.10;46.13;97658.06;2046941;29;20248;-66
2022/11/10 12:38:40;;;;;;;7.15;1.88;;;;;;;20.22;46.28;97661.69;2046375;29;20246;-65
2022/11/10 12:39:52;;;;;;;11.77;6.57;;;;;;;19.78;47.02;97655.72;2046289;29;20287;-66
2022/11/10 12:41:06;;;;;;;3.90;1.13;;;;;;;18.56;49.45;97645.75;2037961;29;20225;-64
2022/11/10 12:42:16;;;;;;;7.70;1.10;;;;;;;18.03;50.93;97655.09;2038392;29;20669;-64
2022/11/10 12:43:34;;;;;;;3.22;1.20;;;;;;;17.21;52.14;97644.72;2046622;29;20250;-64
2022/11/10 12:44:57;;;;;;;9.50;1.42;;;;;;;17.36;52.71;97656.22;2047576;29;20235;-64
2022/11/10 12:46:03;;;;;;;5.85;0.93;;;;;;;16.83;54.28;97652.09;2046625;29;20234;-64
2022/11/10 12:47:10;;;;;;;3.72;0.90;;;;;;;17.55;52.72;97636.72;2046671;29;20262;-64
2022/11/10 12:48:16;;;;;;;6.32;1.30;;;;;;;18.13;51.70;97637.75;2046573;29;20807;-64
2022/11/10 12:49:32;;;;;;;4.60;1.00;;;;;;;18.47;50.03;97650.75;2046881;29;20632;-64
2022/11/10 12:50:57;;;;;;;4.20;0.90;;;;;;;18.34;51.88;97651.47;2047185;29;20792;-64
2022/11/10 12:52:16;;;;;;;10.10;1.70;;;;;;;19.03;51.44;97651.72;2046669;29;20306;-64
2022/11/10 12:53:25;;;;;;;3.53;1.10;;;;;;;18.87;50.19;97649.13;2047426;29;20246;-64
2022/11/10 12:54:27;;;;;;;5.20;1.10;;;;;;;19.44;50.70;97652.66;2047394;29;20859;-64
2022/11/10 12:55:43;;;;;;;9.70;1.40;;;;;;;20.31;48.96;97669.00;2045943;29;20211;-64
2022/11/10 12:56:50;;;;;;;3.17;1.05;;;;;;;20.56;47.13;97664.69;2046604;28;20286;-64
2022/11/10 12:57:52;;;;;;;5.20;1.10;;;;;;;19.56;47.75;97669.53;2047016;29;20868;-64
2022/11/10 12:59:18;;;;;;;4.53;1.00;;;;;;;18.56;50.36;97668.69;2046645;29;20232;-64
2022/11/10 13:00:30;;;;;;;4.78;1.25;;;;;;;17.68;52.90;97665.91;2047405;29;20200;-64
2022/11/10 13:01:32;;;;;;;5.00;1.10;;;;;;;17.70;52.35;97677.22;2046324;29;20866;-64
2022/11/10 13:02:45;;;;;;;7.15;0.90;;;;;;;17.37;54.49;97673.78;2046754;28;20210;-64
2022/11/10 13:03:57;;;;;;;11.25;1.50;;;;;;;17.88;53.16;97668.25;2068696;28;20590;-64
2022/11/10 13:05:09;;;;;;;7.60;1.70;;;;;;;19.56;51.58;97664.25;2075594;28;20602;-64
2022/11/10 13:06:27;;;;;;;13.20;2.97;;;;;;;19.35;50.00;97674.41;2072759;28;20284;-64
2022/11/10 13:07:29;;;;;;;4.45;1.23;;;;;;;19.56;49.72;97670.38;2075377;28;20228;-64
2022/11/10 13:08:43;;;;;;;5.97;1.23;;;;;;;20.03;47.14;97662.09;2076372;28;20825;-64
2022/11/10 13:09:45;;;;;;;4.13;1.15;;;;;;;20.42;47.92;97664.78;2076507;28;20288;-64
2022/11/10 13:10:51;;;;;;;11.68;1.20;;;;;;;21.11;46.39;97672.41;2076591;28;20194;-64
2022/11/10 13:12:03;;;;;;;6.55;1.20;;;;;;;21.73;44.78;97678.63;2076165;28;20248;-64
2022/11/10 13:13:04;;;;;;;4.60;1.00;;;;;;;21.41;45.07;97677.31;2077721;28;20284;-65
2022/11/10 13:14:26;;;;;;;4.30;1.00;;;;;;;21.18;44.83;97681.63;2077175;28;20277;-64